createdAt,value
2018-08-31T00:00:07.372Z,67.10
2018-08-31T00:02:39.199Z,67.00
2018-08-31T00:05:49.494Z,67.00
2018-08-31T00:10:34.583Z,67.20
2018-08-31T00:13:02.043Z,67.70
2018-08-31T00:15:29.475Z,68.20
2018-08-31T00:17:56.763Z,68.90
2018-08-31T00:20:24.105Z,69.00
2018-08-31T00:22:51.399Z,68.90
2018-08-31T00:26:29.057Z,68.70
2018-08-31T00:29:10.143Z,68.70
2018-08-31T00:32:46.634Z,68.40
2018-08-31T00:36:27.369Z,68.40
2018-08-31T00:39:05.334Z,68.40
2018-08-31T00:43:52.728Z,68.40
2018-08-31T00:46:20.023Z,68.60
2018-08-31T00:48:47.319Z,68.50
2018-08-31T00:51:14.631Z,68.90
2018-08-31T00:53:41.966Z,70.10
2018-08-31T00:56:09.250Z,69.60
2018-08-31T00:58:36.739Z,69.80
2018-08-31T01:03:38.353Z,69.70
2018-08-31T01:06:05.687Z,69.70
2018-08-31T01:08:32.994Z,69.60
2018-08-31T01:11:00.474Z,69.40
2018-08-31T01:13:27.803Z,69.30
2018-08-31T01:15:55.154Z,69.30
2018-08-31T01:18:22.466Z,69.30
2018-08-31T01:20:49.786Z,69.20
2018-08-31T01:23:17.067Z,69.30
2018-08-31T01:25:44.420Z,69.30
2018-08-31T01:28:11.731Z,69.20
2018-08-31T01:30:39.036Z,69.50
2018-08-31T01:33:06.361Z,69.90
2018-08-31T01:35:33.687Z,70.30
2018-08-31T01:38:01.035Z,70.90
2018-08-31T01:40:28.388Z,71.10
2018-08-31T01:42:55.698Z,71.30
2018-08-31T01:45:23.009Z,71.30
2018-08-31T01:47:50.323Z,71.10
2018-08-31T01:50:17.621Z,70.70
2018-08-31T01:52:44.985Z,70.50
2018-08-31T01:55:12.451Z,70.20
2018-08-31T01:57:39.764Z,70.10
2018-08-31T02:00:07.147Z,69.90
2018-08-31T02:02:34.552Z,70.00
2018-08-31T02:05:01.864Z,69.70
2018-08-31T02:07:29.150Z,69.60
2018-08-31T02:09:56.474Z,69.60
2018-08-31T02:12:23.811Z,69.50
2018-08-31T02:14:51.099Z,69.40
2018-08-31T02:17:18.427Z,69.60
2018-08-31T02:19:45.745Z,69.40
2018-08-31T02:22:13.060Z,69.50
2018-08-31T02:24:40.391Z,69.60
2018-08-31T02:27:07.960Z,69.40
2018-08-31T02:29:35.279Z,69.50
2018-08-31T02:32:02.604Z,69.60
2018-08-31T02:34:29.955Z,69.60
2018-08-31T02:36:57.286Z,69.60
2018-08-31T02:39:24.566Z,69.50
2018-08-31T02:41:51.794Z,69.50
2018-08-31T02:44:19.093Z,69.50
2018-08-31T02:46:46.407Z,69.40
2018-08-31T02:49:13.939Z,69.40
2018-08-31T02:51:41.220Z,69.50
2018-08-31T02:54:08.518Z,69.40
2018-08-31T02:56:36.117Z,69.50
2018-08-31T02:59:03.400Z,69.50
2018-08-31T03:01:30.715Z,69.70
2018-08-31T03:03:58.019Z,69.70
2018-08-31T03:06:25.428Z,69.70
2018-08-31T03:08:52.756Z,70.60
2018-08-31T03:11:20.132Z,69.70
2018-08-31T03:13:47.432Z,69.80
2018-08-31T03:16:14.741Z,69.80
2018-08-31T03:18:42.125Z,70.70
2018-08-31T03:21:09.459Z,69.80
2018-08-31T03:23:36.766Z,69.80
2018-08-31T03:26:04.075Z,69.90
2018-08-31T03:28:31.392Z,69.80
2018-08-31T03:30:58.745Z,69.80
2018-08-31T03:33:26.066Z,69.80
2018-08-31T03:35:53.370Z,69.80
2018-08-31T03:38:20.711Z,69.80
2018-08-31T03:40:48.046Z,69.90
2018-08-31T03:43:15.343Z,70.00
2018-08-31T03:45:42.656Z,70.20
2018-08-31T03:48:09.986Z,70.30
2018-08-31T03:50:37.295Z,70.60
2018-08-31T03:53:04.639Z,70.60
2018-08-31T03:55:31.980Z,70.60
2018-08-31T03:57:59.305Z,70.80
2018-08-31T04:00:26.694Z,70.80
2018-08-31T04:02:53.995Z,70.90
2018-08-31T04:05:21.518Z,71.00
2018-08-31T04:07:48.804Z,71.00
2018-08-31T04:10:16.108Z,70.80
2018-08-31T04:12:43.575Z,70.70
2018-08-31T04:15:10.988Z,70.80
2018-08-31T04:17:38.391Z,70.70
2018-08-31T04:20:06.671Z,70.60
2018-08-31T04:22:34.013Z,70.60
2018-08-31T04:25:01.300Z,70.60
2018-08-31T04:27:28.691Z,70.60
2018-08-31T04:29:56.037Z,70.40
2018-08-31T04:32:23.319Z,70.50
2018-08-31T04:34:50.622Z,70.50
2018-08-31T04:37:17.972Z,70.50
2018-08-31T04:39:45.258Z,70.60
2018-08-31T04:42:12.589Z,70.60
2018-08-31T04:44:39.992Z,70.60
2018-08-31T04:47:07.337Z,71.40
2018-08-31T04:49:34.708Z,70.80
2018-08-31T04:52:02.052Z,71.00
2018-08-31T04:54:29.359Z,71.00
2018-08-31T04:56:56.664Z,70.90
2018-08-31T04:59:24.195Z,71.00
2018-08-31T05:01:51.479Z,71.10
2018-08-31T05:04:18.856Z,71.40
2018-08-31T05:06:46.178Z,71.50
2018-08-31T05:09:13.480Z,71.60
2018-08-31T05:11:41.240Z,71.80
2018-08-31T05:14:08.575Z,71.90
2018-08-31T05:16:35.911Z,72.00
2018-08-31T05:19:03.291Z,72.10
2018-08-31T05:21:30.733Z,72.30
2018-08-31T05:23:58.063Z,72.40
2018-08-31T05:26:25.959Z,72.50
2018-08-31T05:28:53.544Z,72.50
2018-08-31T05:31:20.843Z,72.60
2018-08-31T05:33:48.179Z,72.70
2018-08-31T05:36:15.536Z,72.80
2018-08-31T05:38:43.873Z,73.00
2018-08-31T05:41:11.175Z,73.10
2018-08-31T05:43:38.523Z,73.10
2018-08-31T05:46:06.138Z,73.20
2018-08-31T05:48:33.433Z,73.40
2018-08-31T05:51:07.615Z,73.50
2018-08-31T05:53:34.952Z,73.50
2018-08-31T05:56:02.240Z,73.80
2018-08-31T05:58:29.612Z,73.90
2018-08-31T06:00:56.944Z,74.10
2018-08-31T06:03:24.240Z,74.10
2018-08-31T06:05:51.581Z,74.30
2018-08-31T06:08:18.935Z,74.40
2018-08-31T06:10:46.244Z,74.40
2018-08-31T06:13:13.629Z,74.60
2018-08-31T06:15:40.952Z,74.70
2018-08-31T06:18:08.595Z,74.70
2018-08-31T06:20:35.909Z,74.70
2018-08-31T06:23:03.539Z,75.50
2018-08-31T06:25:30.879Z,74.90
2018-08-31T06:27:58.208Z,74.80
2018-08-31T06:30:25.771Z,74.90
2018-08-31T06:32:53.071Z,75.10
2018-08-31T06:35:20.460Z,75.20
2018-08-31T06:37:47.913Z,75.40
2018-08-31T06:42:49.444Z,75.70
2018-08-31T06:45:16.799Z,75.90
2018-08-31T06:47:44.320Z,75.70
2018-08-31T06:50:11.699Z,75.70
2018-08-31T06:52:38.998Z,75.60
2018-08-31T06:55:12.976Z,75.60
2018-08-31T06:57:40.299Z,75.60
2018-08-31T07:00:07.960Z,75.30
2018-08-31T07:02:35.308Z,75.20
2018-08-31T07:05:02.629Z,75.00
2018-08-31T07:07:29.981Z,74.40
2018-08-31T07:09:57.696Z,73.70
2018-08-31T07:12:25.098Z,73.40
2018-08-31T07:14:52.439Z,72.90
2018-08-31T07:17:19.960Z,73.20
2018-08-31T07:19:47.291Z,73.20
2018-08-31T07:22:14.612Z,73.50
2018-08-31T07:24:42.624Z,73.10
2018-08-31T07:27:09.957Z,73.40
2018-08-31T07:29:37.327Z,73.30
2018-08-31T07:32:04.923Z,73.20
2018-08-31T07:34:32.248Z,72.90
2018-08-31T07:36:59.567Z,73.00
2018-08-31T07:39:26.890Z,73.30
2018-08-31T07:41:54.200Z,73.40
2018-08-31T07:46:55.763Z,72.30
2018-08-31T07:49:23.259Z,71.70
2018-08-31T07:51:50.573Z,71.30
2018-08-31T07:54:17.907Z,71.00
2018-08-31T07:56:45.253Z,69.50
2018-08-31T07:59:12.572Z,69.90
2018-08-31T08:01:39.937Z,70.60
2018-08-31T08:04:07.269Z,70.00
2018-08-31T08:06:34.569Z,69.10
2018-08-31T08:09:01.935Z,69.30
2018-08-31T08:11:29.544Z,67.90
2018-08-31T08:13:56.884Z,67.00
2018-08-31T08:16:24.235Z,67.30
2018-08-31T08:18:51.604Z,67.60
2018-08-31T08:21:18.993Z,66.30
2018-08-31T08:23:46.521Z,66.70
2018-08-31T08:26:13.828Z,67.60
2018-08-31T08:28:41.160Z,68.00
2018-08-31T08:31:08.495Z,68.30
2018-08-31T08:33:35.830Z,68.30
2018-08-31T08:36:03.216Z,67.40
2018-08-31T08:38:30.498Z,67.30
2018-08-31T08:40:57.844Z,67.60
2018-08-31T08:43:25.164Z,65.90
2018-08-31T08:45:52.562Z,66.00
2018-08-31T08:48:19.982Z,66.60
2018-08-31T08:50:47.282Z,65.30
2018-08-31T08:53:14.580Z,65.30
2018-08-31T08:55:41.893Z,64.80
2018-08-31T08:58:09.217Z,65.30
2018-08-31T09:00:36.523Z,64.90
2018-08-31T09:03:04.458Z,64.10
2018-08-31T09:05:31.898Z,64.40
2018-08-31T09:07:59.179Z,64.30
2018-08-31T09:10:26.505Z,65.30
2018-08-31T09:12:53.811Z,71.50
2018-08-31T09:15:21.271Z,64.30
2018-08-31T09:17:49.939Z,63.80
2018-08-31T09:20:17.363Z,63.20
2018-08-31T09:22:44.567Z,62.50
2018-08-31T09:25:11.880Z,63.10
2018-08-31T09:27:39.288Z,62.70
2018-08-31T09:30:11.255Z,61.90
2018-08-31T09:32:38.616Z,61.40
2018-08-31T09:35:05.999Z,62.10
2018-08-31T09:37:33.324Z,62.50
2018-08-31T09:40:00.694Z,61.90
2018-08-31T09:42:28.207Z,61.90
2018-08-31T09:44:55.526Z,61.30
2018-08-31T09:47:22.819Z,57.80
2018-08-31T09:49:50.212Z,59.00
2018-08-31T09:52:17.847Z,59.10
2018-08-31T09:54:45.128Z,59.80
2018-08-31T09:57:12.472Z,57.30
2018-08-31T09:59:43.413Z,57.60
2018-08-31T10:02:15.311Z,57.90
2018-08-31T10:04:43.327Z,59.40
2018-08-31T10:07:10.637Z,58.50
2018-08-31T10:09:37.970Z,59.20
2018-08-31T10:12:05.382Z,61.20
2018-08-31T10:14:32.670Z,55.60
2018-08-31T10:16:59.986Z,54.70
2018-08-31T10:19:27.306Z,53.80
2018-08-31T10:21:54.651Z,54.00
2018-08-31T10:24:21.967Z,53.80
2018-08-31T10:26:49.507Z,53.80
2018-08-31T10:31:44.159Z,51.10
2018-08-31T10:34:11.863Z,52.00
2018-08-31T10:36:39.336Z,52.90
2018-08-31T10:39:09.857Z,54.00
2018-08-31T10:41:37.183Z,54.60
2018-08-31T10:44:04.507Z,54.90
2018-08-31T10:46:31.928Z,54.40
2018-08-31T10:48:59.327Z,54.90
2018-08-31T10:51:26.660Z,54.50
2018-08-31T10:53:53.991Z,53.40
2018-08-31T10:56:21.317Z,51.20
2018-08-31T10:58:48.650Z,51.20
2018-08-31T11:01:16.155Z,51.10
2018-08-31T11:03:43.520Z,49.00
2018-08-31T11:06:10.831Z,47.60
2018-08-31T11:08:38.172Z,49.00
2018-08-31T11:11:05.990Z,49.50
2018-08-31T11:13:33.299Z,50.00
2018-08-31T11:16:00.909Z,50.80
2018-08-31T11:18:28.270Z,50.80
2018-08-31T11:20:55.687Z,50.10
2018-08-31T11:23:23.000Z,51.00
2018-08-31T11:25:50.323Z,48.20
2018-08-31T11:28:17.575Z,47.40
2018-08-31T11:30:44.889Z,48.20
2018-08-31T11:33:12.231Z,49.10
2018-08-31T11:35:39.553Z,49.10
2018-08-31T11:38:06.888Z,50.10
2018-08-31T11:40:34.448Z,50.70
2018-08-31T11:43:01.735Z,50.60
2018-08-31T11:45:29.079Z,51.70
2018-08-31T11:47:56.423Z,51.90
2018-08-31T11:50:23.719Z,52.10
2018-08-31T11:52:51.028Z,48.00
2018-08-31T11:55:18.440Z,49.20
2018-08-31T11:57:45.727Z,49.90
2018-08-31T12:00:13.035Z,50.30
2018-08-31T12:02:40.379Z,49.90
2018-08-31T12:05:07.727Z,47.10
2018-08-31T12:07:35.568Z,48.10
2018-08-31T12:10:03.037Z,50.10
2018-08-31T12:12:30.352Z,51.10
2018-08-31T12:14:57.675Z,50.30
2018-08-31T12:17:25.026Z,45.10
2018-08-31T12:19:52.360Z,48.20
2018-08-31T12:22:19.679Z,44.90
2018-08-31T12:24:47.027Z,44.90
2018-08-31T12:27:14.353Z,46.30
2018-08-31T12:29:41.944Z,46.00
2018-08-31T12:32:09.243Z,44.30
2018-08-31T12:34:36.581Z,45.70
2018-08-31T12:37:03.927Z,47.00
2018-08-31T12:39:31.240Z,47.00
2018-08-31T12:41:58.669Z,47.20
2018-08-31T12:44:26.079Z,47.80
2018-08-31T12:46:53.445Z,48.50
2018-08-31T12:49:20.800Z,46.70
2018-08-31T12:51:48.105Z,46.00
2018-08-31T12:54:15.402Z,44.60
2018-08-31T12:56:43.061Z,46.50
2018-08-31T12:59:10.407Z,47.00
2018-08-31T13:01:37.740Z,45.40
2018-08-31T13:04:05.639Z,46.10
2018-08-31T13:06:32.979Z,46.20
2018-08-31T13:09:01.155Z,45.90
2018-08-31T13:11:28.721Z,47.10
2018-08-31T13:13:56.016Z,45.70
2018-08-31T13:16:23.349Z,46.30
2018-08-31T13:18:50.699Z,46.70
2018-08-31T13:21:18.059Z,46.70
2018-08-31T13:23:45.391Z,48.10
2018-08-31T13:26:12.729Z,47.90
2018-08-31T13:28:40.064Z,49.50
2018-08-31T13:31:07.450Z,50.30
2018-08-31T13:33:34.747Z,49.10
2018-08-31T13:36:02.092Z,48.60
2018-08-31T13:38:29.403Z,45.70
2018-08-31T13:40:56.727Z,46.30
2018-08-31T13:43:24.224Z,47.80
2018-08-31T13:45:51.532Z,46.90
2018-08-31T13:48:18.848Z,44.00
2018-08-31T13:50:46.198Z,45.40
2018-08-31T13:53:13.495Z,46.50
2018-08-31T13:55:40.825Z,47.00
2018-08-31T13:58:08.137Z,48.50
2018-08-31T14:00:35.458Z,48.00
2018-08-31T14:03:02.767Z,48.20
2018-08-31T14:05:30.081Z,47.30
2018-08-31T14:07:57.432Z,47.60
2018-08-31T14:10:24.767Z,46.00
2018-08-31T14:12:52.152Z,47.00
2018-08-31T14:15:19.436Z,45.50
2018-08-31T14:17:46.904Z,43.10
2018-08-31T14:20:14.311Z,42.10
2018-08-31T14:22:41.701Z,43.50
2018-08-31T14:25:09.255Z,45.30
2018-08-31T14:27:36.567Z,43.90
2018-08-31T14:30:04.102Z,43.60
2018-08-31T14:32:38.046Z,42.90
2018-08-31T14:35:05.401Z,44.00
2018-08-31T14:37:32.789Z,42.10
2018-08-31T14:40:00.276Z,43.10
2018-08-31T14:42:27.610Z,43.80
2018-08-31T14:44:54.932Z,43.90
2018-08-31T14:47:22.236Z,43.40
2018-08-31T14:49:49.555Z,43.10
2018-08-31T14:52:16.898Z,44.90
2018-08-31T14:54:44.239Z,44.70
2018-08-31T14:57:11.547Z,44.70
2018-08-31T14:59:38.860Z,44.20
2018-08-31T15:02:06.341Z,44.30
2018-08-31T15:04:33.639Z,44.60
2018-08-31T15:07:01.008Z,42.90
2018-08-31T15:09:28.359Z,42.10
2018-08-31T15:11:55.668Z,42.30
2018-08-31T15:14:22.961Z,43.20
2018-08-31T15:16:50.462Z,41.90
2018-08-31T15:19:17.784Z,41.10
2018-08-31T15:21:45.083Z,41.10
2018-08-31T15:24:12.401Z,41.40
2018-08-31T15:26:39.724Z,42.10
2018-08-31T15:29:07.045Z,43.10
2018-08-31T15:31:34.391Z,44.20
2018-08-31T15:34:02.325Z,43.70
2018-08-31T15:36:29.664Z,44.70
2018-08-31T15:38:56.986Z,44.80
2018-08-31T15:41:24.313Z,45.10
2018-08-31T15:43:51.879Z,44.30
2018-08-31T15:46:19.212Z,44.00
2018-08-31T15:48:46.526Z,44.50
2018-08-31T15:51:14.042Z,44.00
2018-08-31T15:53:41.347Z,44.50
2018-08-31T15:56:08.703Z,44.60
2018-08-31T15:58:36.207Z,45.80
2018-08-31T16:01:03.635Z,45.20
2018-08-31T16:03:30.939Z,46.00
2018-08-31T16:05:58.479Z,45.80
2018-08-31T16:08:25.823Z,45.80
2018-08-31T16:10:53.128Z,46.30
2018-08-31T16:13:20.431Z,46.50
2018-08-31T16:15:47.739Z,46.70
2018-08-31T16:18:15.055Z,46.50
2018-08-31T16:20:42.416Z,46.70
2018-08-31T16:23:09.727Z,47.30
2018-08-31T16:25:37.150Z,47.80
2018-08-31T16:28:04.597Z,47.30
2018-08-31T16:30:32.007Z,47.50
2018-08-31T16:32:59.379Z,47.70
2018-08-31T16:35:26.768Z,47.70
2018-08-31T16:37:54.098Z,47.90
2018-08-31T16:40:21.425Z,48.00
2018-08-31T16:42:48.827Z,48.80
2018-08-31T16:45:16.151Z,49.00
2018-08-31T16:47:43.713Z,47.60
2018-08-31T16:50:11.188Z,47.90
2018-08-31T16:52:38.540Z,47.40
2018-08-31T16:55:06.000Z,47.90
2018-08-31T16:57:33.579Z,48.00
2018-08-31T17:00:00.902Z,48.00
2018-08-31T17:02:28.385Z,47.60
2018-08-31T17:04:55.716Z,47.80
2018-08-31T17:07:23.041Z,48.10
2018-08-31T17:09:50.367Z,47.80
2018-08-31T17:12:17.903Z,47.80
2018-08-31T17:14:45.292Z,47.80
2018-08-31T17:17:12.650Z,48.30
2018-08-31T17:19:39.963Z,48.00
2018-08-31T17:22:07.411Z,48.00
2018-08-31T17:24:34.747Z,48.50
2018-08-31T17:27:07.779Z,48.40
2018-08-31T17:29:39.748Z,48.90
2018-08-31T17:33:15.527Z,49.10
2018-08-31T17:35:48.577Z,49.40
2018-08-31T17:38:17.727Z,50.20
2018-08-31T17:40:45.096Z,50.50
2018-08-31T17:43:12.358Z,50.40
2018-08-31T17:45:39.663Z,49.90
2018-08-31T17:48:07.000Z,50.10
2018-08-31T17:50:34.296Z,50.30
2018-08-31T17:53:01.710Z,50.70
2018-08-31T17:55:29.027Z,50.70
2018-08-31T17:57:56.416Z,50.50
2018-08-31T18:00:23.716Z,50.20
2018-08-31T18:02:51.035Z,50.40
2018-08-31T18:05:18.361Z,50.40
2018-08-31T18:07:45.643Z,50.40
2018-08-31T18:10:12.938Z,50.50
2018-08-31T18:12:40.207Z,50.30
2018-08-31T18:15:07.489Z,50.50
2018-08-31T18:17:34.775Z,50.90
2018-08-31T18:20:02.138Z,50.60
2018-08-31T18:22:29.487Z,51.00
2018-08-31T18:24:56.770Z,51.10
2018-08-31T18:27:24.043Z,51.40
2018-08-31T18:29:51.371Z,52.40
2018-08-31T18:32:18.688Z,51.80
2018-08-31T18:34:46.003Z,52.20
2018-08-31T18:37:13.379Z,52.20
2018-08-31T18:39:40.651Z,52.20
2018-08-31T18:42:07.937Z,52.50
2018-08-31T18:44:35.424Z,52.70
2018-08-31T18:47:02.710Z,52.70
2018-08-31T18:49:30.031Z,52.80
2018-08-31T18:51:57.339Z,52.80
2018-08-31T18:54:24.655Z,52.40
2018-08-31T18:56:51.994Z,52.60
2018-08-31T18:59:19.346Z,52.90
2018-08-31T19:01:46.645Z,53.10
2018-08-31T19:04:13.949Z,53.30
2018-08-31T19:06:41.259Z,53.40
2018-08-31T19:09:08.755Z,53.20
2018-08-31T19:11:36.091Z,53.30
2018-08-31T19:14:03.685Z,53.50
2018-08-31T19:16:30.980Z,53.60
2018-08-31T19:18:58.374Z,53.40
2018-08-31T19:21:25.772Z,53.60
2018-08-31T19:23:53.152Z,53.90
2018-08-31T19:26:20.436Z,53.80
2018-08-31T19:28:47.779Z,54.00
2018-08-31T19:31:15.568Z,54.10
2018-08-31T19:33:42.984Z,54.20
2018-08-31T19:36:10.432Z,54.30
2018-08-31T19:38:37.893Z,54.50
2018-08-31T19:41:05.315Z,55.10
2018-08-31T19:43:32.616Z,54.80
2018-08-31T19:46:00.021Z,54.60
2018-08-31T19:48:27.321Z,54.70
2018-08-31T19:50:54.672Z,54.80
2018-08-31T19:53:21.978Z,54.70
2018-08-31T19:55:49.322Z,55.00
2018-08-31T19:58:16.657Z,55.10
2018-08-31T20:00:44.036Z,55.20
2018-08-31T20:03:11.356Z,55.30
2018-08-31T20:05:38.846Z,55.30
2018-08-31T20:08:06.233Z,55.50
2018-08-31T20:10:33.570Z,55.50
2018-08-31T20:13:00.889Z,55.60
2018-08-31T20:15:28.282Z,55.80
2018-08-31T20:17:55.641Z,55.80
2018-08-31T20:20:22.998Z,55.90
2018-08-31T20:22:50.440Z,55.90
2018-08-31T20:25:17.772Z,56.00
2018-08-31T20:27:45.107Z,56.20
2018-08-31T20:30:12.432Z,56.30
2018-08-31T20:32:39.825Z,56.50
2018-08-31T20:35:07.224Z,56.50
2018-08-31T20:37:34.529Z,56.50
2018-08-31T20:40:01.923Z,56.50
2018-08-31T20:42:29.351Z,56.70
2018-08-31T20:44:56.677Z,56.60
2018-08-31T20:47:24.100Z,56.60
2018-08-31T20:49:51.361Z,56.60
2018-08-31T20:52:18.695Z,56.80
2018-08-31T20:54:46.102Z,56.80
2018-08-31T20:57:13.427Z,57.50
2018-08-31T20:59:40.739Z,57.00
2018-08-31T21:02:08.096Z,57.10
2018-08-31T21:04:35.436Z,57.10
2018-08-31T21:07:02.785Z,57.20
2018-08-31T21:09:30.127Z,57.20
2018-08-31T21:11:57.451Z,57.30
2018-08-31T21:14:24.755Z,57.40
2018-08-31T21:16:52.102Z,57.50
2018-08-31T21:19:19.607Z,57.40
2018-08-31T21:21:46.902Z,57.50
2018-08-31T21:24:14.315Z,57.40
2018-08-31T21:26:41.687Z,57.60
2018-08-31T21:29:09.036Z,57.60
2018-08-31T21:31:36.467Z,57.70
2018-08-31T21:34:03.819Z,57.80
2018-08-31T21:36:31.140Z,57.80
2018-08-31T21:38:58.432Z,57.90
2018-08-31T21:41:25.736Z,58.00
2018-08-31T21:43:53.575Z,58.00
2018-08-31T21:46:20.902Z,58.10
2018-08-31T21:48:48.359Z,58.10
2018-08-31T21:51:15.703Z,58.30
2018-08-31T21:53:43.177Z,58.40
2018-08-31T21:56:10.494Z,58.60
2018-08-31T21:58:37.803Z,58.60
2018-08-31T22:01:10.968Z,58.70
2018-08-31T22:03:38.315Z,58.70
2018-08-31T22:06:05.630Z,58.80
2018-08-31T22:08:32.951Z,58.90
2018-08-31T22:11:00.616Z,59.10
2018-08-31T22:13:28.007Z,59.10
2018-08-31T22:15:55.475Z,59.30
2018-08-31T22:18:22.786Z,59.20
2018-08-31T22:20:50.099Z,59.40
2018-08-31T22:23:17.390Z,59.50
2018-08-31T22:25:44.708Z,59.50
2018-08-31T22:28:11.998Z,59.70
2018-08-31T22:30:39.552Z,59.80
2018-08-31T22:33:06.836Z,59.90
2018-08-31T22:35:34.130Z,60.10
2018-08-31T22:38:01.435Z,59.80
2018-08-31T22:40:28.720Z,60.20
2018-08-31T22:42:56.052Z,60.50
2018-08-31T22:45:23.372Z,60.60
2018-08-31T22:47:50.735Z,60.90
2018-08-31T22:50:18.057Z,60.80
2018-08-31T22:52:45.445Z,61.00
2018-08-31T22:55:12.791Z,61.10
2018-08-31T22:57:40.088Z,61.10
2018-08-31T23:00:07.513Z,61.20
2018-08-31T23:02:34.806Z,61.30
2018-08-31T23:05:03.321Z,61.50
2018-08-31T23:07:36.514Z,61.60
2018-08-31T23:10:04.078Z,61.90
2018-08-31T23:14:58.985Z,61.30
2018-08-31T23:17:27.803Z,62.00
2018-08-31T23:19:55.871Z,62.00
2018-08-31T23:22:23.688Z,62.00
2018-08-31T23:24:51.115Z,62.00
2018-08-31T23:27:18.418Z,62.20
2018-08-31T23:29:45.764Z,62.30
2018-08-31T23:32:13.114Z,62.30
2018-08-31T23:34:40.463Z,62.40
2018-08-31T23:37:07.789Z,62.50
2018-08-31T23:39:35.116Z,62.60
2018-08-31T23:42:02.423Z,62.80
2018-08-31T23:44:29.727Z,62.90
2018-08-31T23:46:57.031Z,62.90
2018-08-31T23:49:24.393Z,63.00
2018-08-31T23:51:51.743Z,63.10
2018-08-31T23:54:19.057Z,63.20
2018-08-31T23:56:46.491Z,63.50
2018-08-31T23:59:13.794Z,63.50
